Bradford Regional Airport Bradford US
ICAO: KBFD
IATA: BFD
Category: Medium
Scheduled Services: Yes

Elevation: 2143 ft
TransAlt. 18000 ft.

Airport Communications:
ASOS:133.825
CLEVELAND CNTR:124.325
ALTOONA RDO:122.2
CTAF/UNICOM:123.075

KBFD Zoom In..

If you have problems with the map follow the link
https://www.worldairports.se/pages/airport.php?
ICAO=KBFD

Runways:

(A) RW 05 length 4499 ft width 100 ft
---- / hdg 55

(B) RW 14 length 6306 ft width 150 ft
---- / hdg 145

(C) RW 23 length 4499 ft width 100 ft
---- / hdg 235

(D) RW 32 length 6306 ft width 150 ft
ILS 108.30 / hdg 325

Location; KBFD
Day. 16 / Time. 03.15 Zulu
* Altimeter: 29.80
* Temperature: -02° c. -28.4°f.
* Wind from: 120° Speed 04 kn.
Dewpoint: -02° c.
Visibility: 5 Statute Miles.
Clouds: Overcast 3500 ft.
Conditions: Mist.

KBFD 160315Z AUTO 12004KT 5SM UP BR OVC035 M02/M02 A2980 RMK AO2 UPB14SNE14 P0006 T10171022


Wind From 120°
Speed 04 kn.

 
 
jpsmedia.com for Web Design worldairports.se 2018   terms of use